This is the latest recevied weather packets stored in our database for station/object TG8AKV-17. If no packets are shown the sender has not sent any weather packets the latest 10 day(s).
| Time | Temp. | Humidity | Pressure | Rain* | Wind** | Luminosity | Snow |
|---|---|---|---|---|---|---|---|
| 1778098219 | 18.33° C | 86% | 1015 hPa | 0 mm | - | - | - |
| 1778097618 | 18.33° C | 86% | 1015 hPa | 0 mm | - | - | - |
| 1778097018 | 18.33° C | 82% | 1015 hPa | 0 mm | - | - | - |
| 1778096417 | 18.33° C | 82% | 1015 hPa | 0 mm | - | - | - |
| 1778095817 | 18.33° C | 76% | 1015 hPa | 0 mm | - | - | - |
| 1778095216 | 27.22° C | 41% | 1015 hPa | 0 mm | - | - | - |
| 1778094616 | 27.22° C | 41% | 1015 hPa | 0 mm | - | - | - |
| 1778094015 | 24.44° C | 35% | 1015 hPa | 0 mm | - | - | - |
| 1778093414 | 22.22° C | 46% | 1015 hPa | 0 mm | - | - | - |
| 1778092814 | 22.22° C | 49% | 1015 hPa | 0 mm | - | - | - |
| 1778092213 | 18.33° C | 76% | 1015 hPa | 0 mm | - | - | - |
| 1778091612 | 27.22° C | 25% | 1016 hPa | 0 mm | - | - | - |
| 1778091012 | 25° C | 36% | 1016 hPa | 0 mm | - | - | - |
| 1778090411 | 25° C | 36% | 1016 hPa | 0 mm | - | - | - |
| 1778089811 | 24.44° C | 38% | 1016 hPa | 0 mm | - | - | - |
| 1778088563 | 23.89° C | 43% | 1016 hPa | 0 mm | - | - | - |
| 1778087963 | 22.22° C | 54% | 1016 hPa | 0 mm | - | - | - |
| 1778087362 | 20° C | 77% | 1016 hPa | 0 mm | - | - | - |
| 1778086761 | 20° C | 74% | 1016 hPa | 0 mm | - | - | - |
| 1778086161 | 20° C | 75% | 1016 hPa | 0 mm | - | - | - |
| 1778085560 | 20° C | 74% | 1016 hPa | 0 mm | - | - | - |
| 1778084959 | 20° C | 74% | 1016 hPa | 0 mm | - | - | - |
| 1778084377 | 20° C | 74% | 1016 hPa | 0 mm | - | - | - |
| 1778083777 | 20° C | 74% | 1016 hPa | 0 mm | - | - | - |
| 1778083176 | 17.78° C | 86% | 1016 hPa | 0 mm | - | - | - |
* Rain latest hour (hover to see other rain measurements)
** Current wind speed in m/s (hover to see current wind gust speed)